Time;durP1;ratioP1;P1;durP2;ratioP2;P2;SDS_P1;SDS_P2;PMS_P1;PMS_P2;Temp;Humidity;BMP_temperature;BMP_pressure;BME280_temperature;BME280_humidity;BME280_pressure;Samples;Min_cycle;Max_cycle;Signal;HPM_P1;HPM_P2
2022/01/31 00:01:26;;;;;;;19.17;5.47;;;3.50;99.90;;;;;;5047112;28;20047;-50
2022/01/31 00:03:52;;;;;;;25.35;5.75;;;3.50;99.90;;;;;;5044493;28;20355;-50
2022/01/31 00:06:18;;;;;;;27.50;5.47;;;3.60;99.90;;;;;;5040356;28;20049;-51
2022/01/31 00:08:43;;;;;;;22.83;5.93;;;3.60;99.90;;;;;;5043846;28;20052;-52
2022/01/31 00:11:09;;;;;;;21.73;5.32;;;3.70;99.90;;;;;;5040105;28;20045;-52
2022/01/31 00:13:39;;;;;;;22.25;5.38;;;3.70;99.90;;;;;;5041915;28;20048;-53
2022/01/31 00:16:09;;;;;;;30.45;5.68;;;3.80;99.90;;;;;;5040510;28;20052;-51
2022/01/31 00:18:35;;;;;;;24.05;5.63;;;3.80;99.90;;;;;;5040974;28;20553;-50
2022/01/31 00:21:00;;;;;;;20.63;5.85;;;3.80;99.90;;;;;;5042092;28;21304;-49
2022/01/31 00:23:27;;;;;;;21.70;5.28;;;3.80;99.90;;;;;;5041112;28;20068;-51
2022/01/31 00:25:52;;;;;;;21.15;5.85;;;3.80;99.90;;;;;;5039694;28;20146;-53
2022/01/31 00:28:18;;;;;;;21.42;5.72;;;3.80;99.90;;;;;;5040421;28;20713;-52
2022/01/31 00:30:45;;;;;;;24.63;5.95;;;3.80;99.90;;;;;;5041839;28;20045;-52
2022/01/31 00:33:10;;;;;;;22.80;5.43;;;3.80;99.90;;;;;;5040696;28;20041;-52
2022/01/31 00:35:36;;;;;;;20.27;5.40;;;3.80;99.90;;;;;;5041085;28;20049;-50
2022/01/31 00:38:03;;;;;;;17.63;5.65;;;3.80;99.90;;;;;;5042855;28;20044;-49
2022/01/31 00:40:29;;;;;;;20.98;5.75;;;3.80;99.90;;;;;;5022068;28;20416;-50
2022/01/31 00:42:54;;;;;;;18.40;6.10;;;3.80;99.90;;;;;;5038641;28;20045;-50
2022/01/31 00:45:26;;;;;;;24.30;6.75;;;3.80;99.90;;;;;;5041847;28;20052;-53
2022/01/31 00:48:03;;;;;;;18.75;5.53;;;3.80;99.90;;;;;;5039478;28;20106;-51
2022/01/31 00:50:37;;;;;;;19.58;6.97;;;3.80;99.90;;;;;;5023371;28;20048;-50
2022/01/31 00:53:02;;;;;;;21.42;5.75;;;3.80;99.90;;;;;;5041384;28;20521;-51
2022/01/31 00:55:28;;;;;;;21.20;6.38;;;3.90;99.90;;;;;;5042426;28;20061;-50
2022/01/31 00:57:53;;;;;;;15.60;5.80;;;3.90;99.90;;;;;;5042309;28;20048;-53
2022/01/31 01:00:19;;;;;;;17.35;6.53;;;3.90;99.90;;;;;;5040411;28;20037;-53
2022/01/31 01:02:45;;;;;;;21.02;5.80;;;3.90;99.90;;;;;;5039900;28;20477;-53
2022/01/31 01:05:11;;;;;;;19.90;6.57;;;;;;;;;;5042267;28;20037;-50
2022/01/31 01:07:37;;;;;;;16.90;5.80;;;4.00;99.90;;;;;;5047901;28;20131;-53
2022/01/31 01:10:03;;;;;;;19.75;7.05;;;4.00;99.90;;;;;;5047884;28;20124;-50
2022/01/31 01:12:29;;;;;;;20.60;6.38;;;4.00;99.90;;;;;;5046355;28;20468;-51
2022/01/31 01:14:55;;;;;;;23.13;6.70;;;4.00;99.90;;;;;;5049532;28;20083;-49
2022/01/31 01:17:20;;;;;;;17.30;6.38;;;4.10;99.90;;;;;;5043297;28;20114;-50
2022/01/31 01:19:46;;;;;;;23.48;7.03;;;4.00;99.90;;;;;;5049614;28;20048;-52
2022/01/31 01:22:11;;;;;;;15.27;7.25;;;4.10;99.90;;;;;;5039767;28;20037;-49
2022/01/31 01:24:38;;;;;;;18.63;7.55;;;4.10;99.90;;;;;;5041197;28;20475;-49
2022/01/31 01:27:04;;;;;;;19.35;7.25;;;4.10;99.90;;;;;;5042156;28;20143;-51
2022/01/31 01:29:30;;;;;;;25.05;7.38;;;4.10;99.90;;;;;;5039331;28;20048;-49
2022/01/31 01:31:56;;;;;;;17.92;7.47;;;4.10;99.90;;;;;;5041178;28;20151;-53
2022/01/31 01:34:23;;;;;;;17.35;8.02;;;4.10;99.90;;;;;;5041863;28;20140;-52
2022/01/31 01:36:52;;;;;;;19.02;8.32;;;4.10;99.90;;;;;;5041548;28;20048;-52
2022/01/31 01:39:18;;;;;;;24.55;9.63;;;4.00;99.90;;;;;;5046036;28;20044;-51
2022/01/31 01:41:44;;;;;;;22.17;9.90;;;4.00;99.90;;;;;;5049124;28;20052;-52
2022/01/31 01:44:09;;;;;;;23.83;9.77;;;4.00;99.90;;;;;;5043940;28;20067;-54
2022/01/31 01:46:35;;;;;;;26.75;9.32;;;3.90;99.90;;;;;;5040465;28;20068;-55
2022/01/31 01:49:01;;;;;;;25.58;10.90;;;3.90;99.90;;;;;;5042117;28;20099;-51
2022/01/31 01:51:26;;;;;;;24.65;10.57;;;3.70;99.90;;;;;;5040038;28;20076;-53
2022/01/31 01:53:52;;;;;;;23.27;11.05;;;3.70;99.90;;;;;;5043223;28;20048;-51
2022/01/31 01:56:18;;;;;;;25.05;12.13;;;3.60;99.90;;;;;;5045428;28;20045;-54
2022/01/31 01:58:44;;;;;;;21.25;11.75;;;3.60;99.90;;;;;;5027348;28;20037;-51
2022/01/31 02:01:12;;;;;;;24.52;11.30;;;3.60;99.90;;;;;;5044958;28;20152;-53
2022/01/31 02:03:39;;;;;;;18.70;11.10;;;3.50;99.90;;;;;;5045492;28;20041;-51
2022/01/31 02:06:06;;;;;;;19.75;11.40;;;3.50;99.90;;;;;;5044359;28;20697;-52
2022/01/31 02:08:42;;;;;;;23.60;11.48;;;3.50;99.90;;;;;;5008227;28;20584;-54
2022/01/31 02:11:09;;;;;;;18.88;11.65;;;3.50;99.90;;;;;;5043871;28;20073;-53
2022/01/31 02:13:38;;;;;;;25.75;11.85;;;3.50;99.90;;;;;;5041674;28;20099;-48
2022/01/31 02:16:09;;;;;;;21.15;11.88;;;3.50;99.90;;;;;;5042034;28;20040;-52
2022/01/31 02:18:41;;;;;;;25.08;11.73;;;3.50;99.90;;;;;;5044064;28;20060;-50
2022/01/31 02:21:07;;;;;;;25.08;12.02;;;3.50;99.90;;;;;;5043057;28;20159;-51
2022/01/31 02:23:33;;;;;;;25.33;11.82;;;3.40;99.90;;;;;;5047446;28;20048;-54
2022/01/31 02:26:02;;;;;;;20.23;11.35;;;3.50;99.90;;;;;;5045389;28;20150;-52
2022/01/31 02:28:30;;;;;;;22.63;12.18;;;3.50;99.90;;;;;;5046297;28;20041;-50
2022/01/31 02:30:56;;;;;;;;;;;3.50;99.90;;;;;;5050359;28;20502;-53
2022/01/31 02:33:22;;;;;;;19.92;11.50;;;3.50;99.90;;;;;;5051664;28;19930;-53
2022/01/31 02:36:03;;;;;;;19.60;11.73;;;3.50;99.90;;;;;;5030251;28;20065;-52
2022/01/31 02:38:30;;;;;;;22.40;11.02;;;3.50;99.90;;;;;;5007354;28;20060;-54
2022/01/31 02:40:56;;;;;;;19.85;11.63;;;3.50;99.90;;;;;;5043277;28;20049;-53
2022/01/31 02:43:34;;;;;;;20.55;12.32;;;3.50;99.90;;;;;;5023793;28;20056;-52
2022/01/31 02:46:00;;;;;;;16.20;11.70;;;3.50;99.90;;;;;;5042797;28;20068;-52
2022/01/31 02:48:28;;;;;;;16.05;11.75;;;3.50;99.90;;;;;;5042134;28;20139;-52
2022/01/31 02:50:55;;;;;;;20.88;11.60;;;3.50;99.90;;;;;;5074452;22;21511;-49
2022/01/31 02:53:30;;;;;;;21.20;12.13;;;3.50;99.90;;;;;;5088506;28;20055;-49
2022/01/31 02:55:58;;;;;;;16.50;10.82;;;3.50;99.90;;;;;;5087951;28;20036;-51
2022/01/31 02:58:25;;;;;;;14.23;9.85;;;3.50;99.90;;;;;;5087683;28;20044;-49
2022/01/31 03:00:52;;;;;;;12.40;8.48;;;3.40;99.90;;;;;;5086093;28;20044;-51
2022/01/31 03:03:18;;;;;;;10.87;8.97;;;3.40;99.90;;;;;;5089069;28;20536;-48
2022/01/31 03:05:44;;;;;;;11.82;9.23;;;3.30;99.90;;;;;;5090193;28;20572;-52
2022/01/31 03:08:10;;;;;;;14.20;10.40;;;3.30;99.90;;;;;;5090915;28;20119;-54
2022/01/31 03:10:35;;;;;;;10.88;9.77;;;3.30;99.90;;;;;;5088327;28;20048;-51
2022/01/31 03:13:02;;;;;;;10.15;8.90;;;3.30;99.90;;;;;;5090170;28;20397;-47
2022/01/31 03:15:27;;;;;;;10.57;9.45;;;3.20;99.90;;;;;;5089887;28;20052;-48
2022/01/31 03:17:53;;;;;;;11.02;9.18;;;3.30;99.90;;;;;;5090229;28;20054;-51
2022/01/31 03:20:20;;;;;;;11.88;9.75;;;3.30;99.90;;;;;;5087804;28;20032;-49
2022/01/31 03:22:47;;;;;;;11.63;9.57;;;3.30;99.90;;;;;;5089169;28;20036;-51
2022/01/31 03:25:12;;;;;;;12.45;9.85;;;3.30;99.90;;;;;;5091380;28;20040;-50
2022/01/31 03:27:39;;;;;;;11.10;9.85;;;3.30;99.90;;;;;;5092360;28;20123;-51
2022/01/31 03:30:06;;;;;;;11.20;9.07;;;3.30;99.90;;;;;;5094055;28;20496;-50
2022/01/31 03:32:32;;;;;;;14.65;9.32;;;3.30;99.90;;;;;;5090276;28;20052;-47
2022/01/31 03:34:57;;;;;;;13.68;10.20;;;3.30;99.90;;;;;;5093675;28;20149;-51
2022/01/31 03:37:23;;;;;;;12.02;10.02;;;3.30;99.90;;;;;;5095282;28;20126;-48
2022/01/31 03:39:48;;;;;;;13.10;9.85;;;3.30;99.90;;;;;;5097556;28;20048;-48
2022/01/31 03:42:18;;;;;;;11.95;9.77;;;3.40;99.90;;;;;;5097532;28;20035;-48
2022/01/31 03:44:46;;;;;;;13.50;10.38;;;3.40;99.90;;;;;;5099461;28;20044;-50
2022/01/31 03:47:11;;;;;;;11.27;10.18;;;3.40;99.90;;;;;;5098917;28;20051;-48
2022/01/31 03:49:37;;;;;;;12.95;10.77;;;3.50;99.90;;;;;;5092949;28;20500;-48
2022/01/31 03:52:03;;;;;;;15.73;10.98;;;3.50;99.90;;;;;;5095091;28;20055;-52
2022/01/31 03:54:28;;;;;;;14.32;11.13;;;3.50;99.90;;;;;;5093215;28;20102;-48
2022/01/31 03:56:54;;;;;;;18.05;11.07;;;3.50;99.90;;;;;;5090222;28;20044;-53
2022/01/31 03:59:19;;;;;;;19.52;11.20;;;3.60;99.90;;;;;;5091824;28;20127;-52
2022/01/31 04:01:45;;;;;;;17.23;11.25;;;3.70;99.90;;;;;;5092194;28;20834;-47
2022/01/31 04:04:10;;;;;;;18.08;12.10;;;3.70;99.90;;;;;;5088303;28;20028;-49
2022/01/31 04:06:38;;;;;;;19.92;10.90;;;3.70;99.90;;;;;;5089941;28;20094;-53
2022/01/31 04:09:04;;;;;;;16.23;9.40;;;3.80;99.90;;;;;;5091419;28;20105;-51
2022/01/31 04:11:30;;;;;;;18.83;9.55;;;3.90;99.90;;;;;;5088813;28;20075;-47
2022/01/31 04:13:55;;;;;;;21.27;9.38;;;4.00;99.90;;;;;;5091780;28;20169;-48
2022/01/31 04:16:21;;;;;;;23.92;9.35;;;4.00;99.90;;;;;;5088723;28;20378;-50
2022/01/31 04:18:46;;;;;;;19.13;7.60;;;4.10;99.90;;;;;;5090167;28;20036;-52
2022/01/31 04:21:13;;;;;;;23.52;7.28;;;4.10;99.90;;;;;;5087854;28;20378;-50
2022/01/31 04:23:39;;;;;;;15.45;6.30;;;4.20;99.90;;;;;;5091646;28;20617;-52
2022/01/31 04:26:12;;;;;;;23.80;5.85;;;4.20;99.90;;;;;;5090538;28;20478;-50
2022/01/31 04:28:46;;;;;;;22.35;5.22;;;4.40;99.90;;;;;;5089542;28;20118;-50
2022/01/31 04:33:50;;;;;;;19.92;4.50;;;4.60;99.90;;;;;;5089232;28;20048;-48
2022/01/31 04:36:15;;;;;;;21.10;4.60;;;4.60;99.90;;;;;;5091719;28;20055;-47
2022/01/31 04:38:45;;;;;;;23.30;3.90;;;4.70;99.90;;;;;;5090386;28;20489;-50
2022/01/31 04:41:10;;;;;;;23.83;4.22;;;4.80;99.90;;;;;;5098107;28;20032;-48
2022/01/31 04:43:37;;;;;;;20.95;3.97;;;4.90;99.90;;;;;;5100667;28;20040;-48
2022/01/31 04:46:05;;;;;;;23.73;4.63;;;5.00;99.90;;;;;;5100156;28;20105;-48
2022/01/31 04:48:30;;;;;;;27.05;4.22;;;5.00;99.90;;;;;;5100584;28;20051;-50
2022/01/31 04:50:56;;;;;;;29.55;3.88;;;5.00;99.90;;;;;;5095079;28;20428;-48
2022/01/31 04:53:22;;;;;;;22.75;4.88;;;5.10;99.90;;;;;;5096037;28;20044;-49
2022/01/31 04:55:48;;;;;;;24.35;4.35;;;5.20;99.90;;;;;;5098381;28;20043;-48
2022/01/31 04:58:13;;;;;;;27.70;3.88;;;5.20;99.90;;;;;;5098354;28;20493;-50
2022/01/31 05:00:39;;;;;;;26.67;4.43;;;5.30;99.90;;;;;;5094712;28;20040;-49
2022/01/31 05:03:11;;;;;;;22.90;3.80;;;5.30;99.90;;;;;;5091904;28;20093;-48
2022/01/31 05:05:37;;;;;;;21.92;3.70;;;5.30;99.90;;;;;;5090958;28;20044;-48
2022/01/31 05:08:03;;;;;;;15.23;3.60;;;5.30;99.90;;;;;;5096558;28;20093;-48
2022/01/31 05:10:29;;;;;;;21.20;3.38;;;5.30;99.90;;;;;;5096428;28;20043;-50
2022/01/31 05:12:54;;;;;;;19.52;3.90;;;5.40;99.90;;;;;;5099041;28;20389;-48
2022/01/31 05:15:20;;;;;;;20.73;3.47;;;5.30;99.90;;;;;;5086680;28;20458;-50
2022/01/31 05:17:45;;;;;;;21.50;3.70;;;5.30;99.90;;;;;;5095321;28;20432;-49
2022/01/31 05:20:12;;;;;;;23.77;3.03;;;5.30;99.90;;;;;;5098266;28;20040;-47
2022/01/31 05:22:37;;;;;;;19.52;3.22;;;5.20;99.90;;;;;;5095473;28;20048;-49
2022/01/31 05:25:03;;;;;;;19.08;3.63;;;5.20;99.90;;;;;;5095929;28;20066;-48
2022/01/31 05:27:29;;;;;;;21.00;3.58;;;5.10;99.90;;;;;;5091414;28;20038;-51
2022/01/31 05:29:54;;;;;;;17.85;4.18;;;5.00;99.90;;;;;;5097100;28;20071;-48
2022/01/31 05:32:20;;;;;;;20.42;3.70;;;4.90;99.90;;;;;;5098279;28;20435;-51
2022/01/31 05:34:45;;;;;;;21.38;3.25;;;4.90;99.90;;;;;;5097377;28;20346;-50
2022/01/31 05:37:11;;;;;;;16.70;2.92;;;4.80;99.90;;;;;;5097347;28;20048;-48
2022/01/31 05:39:38;;;;;;;22.95;4.00;;;4.70;99.90;;;;;;5092352;28;20042;-49
2022/01/31 05:42:04;;;;;;;26.48;3.53;;;4.70;99.90;;;;;;5100350;28;20036;-49
2022/01/31 05:44:30;;;;;;;22.80;3.78;;;4.70;99.90;;;;;;5100924;28;20087;-52
2022/01/31 05:46:56;;;;;;;19.92;3.13;;;4.70;99.90;;;;;;5100985;28;20040;-48
2022/01/31 05:49:21;;;;;;;25.48;3.95;;;4.80;99.90;;;;;;5098328;28;20070;-50
2022/01/31 05:52:01;;;;;;;21.20;3.60;;;4.80;99.90;;;;;;5097633;28;20044;-51
2022/01/31 05:54:27;;;;;;;18.25;3.60;;;4.90;99.90;;;;;;5092433;28;20450;-51
2022/01/31 05:56:54;;;;;;;12.07;2.20;;;5.00;99.90;;;;;;5095560;28;20118;-52
2022/01/31 05:59:20;;;;;;;11.73;2.30;;;4.90;99.90;;;;;;5097305;28;20120;-52
2022/01/31 06:01:46;;;;;;;12.77;1.90;;;4.80;99.90;;;;;;5097155;28;20064;-49
2022/01/31 06:04:11;;;;;;;13.38;2.05;;;4.80;99.90;;;;;;5097271;28;20123;-51
2022/01/31 06:06:37;;;;;;;10.48;2.30;;;4.80;99.90;;;;;;5096416;28;20494;-47
2022/01/31 06:09:03;;;;;;;6.95;1.33;;;4.70;99.90;;;;;;5096160;28;20040;-48
2022/01/31 06:11:31;;;;;;;7.35;1.13;;;4.70;99.90;;;;;;5089186;28;20040;-47
2022/01/31 06:13:59;;;;;;;7.23;1.40;;;4.60;99.90;;;;;;5090093;28;20059;-49
2022/01/31 06:16:25;;;;;;;8.85;1.20;;;4.60;99.90;;;;;;5085665;28;20298;-53
2022/01/31 06:18:51;;;;;;;8.27;1.55;;;4.60;99.90;;;;;;5083719;28;20036;-53
2022/01/31 06:21:16;;;;;;;7.78;1.77;;;4.60;99.90;;;;;;5083065;28;20052;-53
2022/01/31 06:23:42;;;;;;;11.38;1.70;;;4.60;99.90;;;;;;5084611;28;20060;-48
2022/01/31 06:26:07;;;;;;;8.75;1.80;;;4.50;99.90;;;;;;5086165;28;20454;-53
2022/01/31 06:28:33;;;;;;;8.30;1.90;;;4.60;99.90;;;;;;5086283;28;20056;-53
2022/01/31 06:30:59;;;;;;;10.27;1.80;;;4.50;99.90;;;;;;5084097;28;20040;-50
2022/01/31 06:33:24;;;;;;;13.18;2.22;;;4.50;99.90;;;;;;5085876;28;20076;-49
2022/01/31 06:35:50;;;;;;;13.23;2.35;;;4.50;99.90;;;;;;5084710;28;20519;-48
2022/01/31 06:38:16;;;;;;;14.88;2.00;;;4.50;99.90;;;;;;5083755;28;21633;-52
2022/01/31 06:40:41;;;;;;;15.57;2.10;;;4.50;99.90;;;;;;5083659;28;20539;-49
2022/01/31 06:43:07;;;;;;;19.50;3.03;;;4.50;99.90;;;;;;5085131;28;20429;-52
2022/01/31 06:45:33;;;;;;;15.85;2.28;;;4.50;99.90;;;;;;5082350;28;20044;-50
2022/01/31 06:47:58;;;;;;;17.73;2.70;;;4.50;99.90;;;;;;5083876;28;20051;-49
2022/01/31 06:50:24;;;;;;;18.35;2.60;;;4.50;99.90;;;;;;5084032;28;20052;-48
2022/01/31 06:52:54;;;;;;;12.63;2.15;;;4.60;99.90;;;;;;5086950;28;21315;-51
2022/01/31 06:55:21;;;;;;;19.98;2.47;;;4.60;99.90;;;;;;5085785;28;20123;-50
2022/01/31 06:57:48;;;;;;;12.50;2.35;;;4.60;99.90;;;;;;5086364;28;20043;-50
2022/01/31 07:00:15;;;;;;;19.58;2.90;;;4.60;99.90;;;;;;5088146;28;20036;-51
2022/01/31 07:02:41;;;;;;;17.50;2.40;;;4.70;99.90;;;;;;5085145;28;20075;-55
2022/01/31 07:05:07;;;;;;;15.98;2.80;;;4.70;99.90;;;;;;5085640;28;20052;-53
2022/01/31 07:07:33;;;;;;;18.02;2.85;;;4.70;99.90;;;;;;5090707;28;20127;-51
2022/01/31 07:10:01;;;;;;;12.23;1.75;;;4.80;99.90;;;;;;5085123;28;20127;-52
2022/01/31 07:12:33;;;;;;;11.77;1.98;;;4.80;99.90;;;;;;5087541;28;20032;-51
2022/01/31 07:14:59;;;;;;;9.57;1.98;;;4.90;99.90;;;;;;5084476;28;20470;-49
2022/01/31 07:17:24;;;;;;;9.88;1.73;;;4.80;99.90;;;;;;5084857;28;20048;-51
2022/01/31 07:19:50;;;;;;;11.45;1.85;;;4.90;99.90;;;;;;5089747;28;20094;-51
2022/01/31 07:22:18;;;;;;;14.85;1.77;;;4.90;99.90;;;;;;5089089;28;20508;-52
2022/01/31 07:27:10;;;;;;;11.18;1.80;;;4.90;99.90;;;;;;5092797;28;20056;-51
2022/01/31 07:29:35;;;;;;;9.30;1.55;;;4.90;99.90;;;;;;5092653;28;20036;-49
2022/01/31 07:32:01;;;;;;;10.73;1.67;;;4.80;99.90;;;;;;5093560;28;20051;-52
2022/01/31 07:34:27;;;;;;;7.18;1.30;;;4.80;99.90;;;;;;5093191;28;20039;-53
2022/01/31 07:36:53;;;;;;;12.10;1.40;;;4.80;99.90;;;;;;5089079;28;20647;-54
2022/01/31 07:39:19;;;;;;;6.68;1.40;;;4.80;99.90;;;;;;5094748;28;20044;-53
2022/01/31 07:41:47;;;;;;;8.68;1.40;;;4.80;99.90;;;;;;5096162;28;20048;-51
2022/01/31 07:44:12;;;;;;;8.27;1.70;;;4.80;99.90;;;;;;5088643;28;20434;-48
2022/01/31 07:46:38;;;;;;;11.02;2.28;;;4.70;99.90;;;;;;5089992;28;20050;-50
2022/01/31 07:49:05;;;;;;;14.63;1.92;;;4.70;99.90;;;;;;5091645;28;20090;-51
2022/01/31 07:51:31;;;;;;;8.38;1.90;;;4.70;99.90;;;;;;5090435;28;20130;-53
2022/01/31 07:53:57;;;;;;;10.52;1.77;;;4.70;99.90;;;;;;5095168;28;20048;-51
2022/01/31 07:56:22;;;;;;;10.30;1.90;;;4.70;99.90;;;;;;5092462;28;20469;-52
2022/01/31 07:58:48;;;;;;;10.00;1.85;;;4.70;99.90;;;;;;5094038;28;20062;-49
2022/01/31 08:01:14;;;;;;;10.38;1.80;;;4.80;99.90;;;;;;5085335;28;20035;-51
2022/01/31 08:03:40;;;;;;;7.60;1.30;;;4.80;99.90;;;;;;5086159;28;21276;-50
2022/01/31 08:06:06;;;;;;;8.88;2.15;;;4.80;99.90;;;;;;5089488;28;20047;-49
2022/01/31 08:08:34;;;;;;;12.82;1.80;;;4.80;99.90;;;;;;5089997;28;20064;-53
2022/01/31 08:11:01;;;;;;;9.80;1.70;;;4.80;99.90;;;;;;5093372;28;20064;-49
2022/01/31 08:13:26;;;;;;;10.77;1.80;;;4.90;99.90;;;;;;5094601;28;20095;-50
2022/01/31 08:16:02;;;;;;;14.82;2.30;;;4.90;99.90;;;;;;5094742;28;20501;-49
2022/01/31 08:18:29;;;;;;;12.48;2.25;;;4.90;99.90;;;;;;5098156;28;20127;-49
2022/01/31 08:20:55;;;;;;;11.25;1.90;;;4.90;99.90;;;;;;5094012;28;20044;-49
2022/01/31 08:23:20;;;;;;;15.77;1.90;;;4.90;99.90;;;;;;5093724;28;20603;-49
2022/01/31 08:25:48;;;;;;;15.45;2.35;;;5.00;99.90;;;;;;5096063;28;20044;-48
2022/01/31 08:28:16;;;;;;;13.52;1.95;;;5.00;99.90;;;;;;5094647;28;20040;-49
2022/01/31 08:30:50;;;;;;;13.32;1.85;;;5.10;99.90;;;;;;5084158;28;20043;-48
2022/01/31 08:33:32;;;;;;;12.00;1.67;;;5.10;99.90;;;;;;5085644;28;20044;-49
2022/01/31 08:36:02;;;;;;;10.52;1.67;;;5.20;99.90;;;;;;5096812;28;20047;-48
2022/01/31 08:38:29;;;;;;;12.02;2.13;;;5.20;99.90;;;;;;5098683;28;20085;-53
2022/01/31 08:40:55;;;;;;;11.10;2.05;;;5.30;99.90;;;;;;5098219;28;20032;-50
2022/01/31 08:43:22;;;;;;;10.13;2.10;;;;;;;;;;5100302;28;20128;-51
2022/01/31 08:45:49;;;;;;;13.98;2.05;;;5.40;99.90;;;;;;5100483;28;20036;-48
2022/01/31 08:48:15;;;;;;;10.02;1.63;;;5.50;99.90;;;;;;5099326;28;20094;-50
2022/01/31 08:50:40;;;;;;;9.98;1.90;;;5.50;99.90;;;;;;5100369;28;20052;-50
2022/01/31 08:53:06;;;;;;;10.98;1.90;;;5.50;99.90;;;;;;5100203;28;20076;-51
2022/01/31 08:55:31;;;;;;;13.82;2.20;;;5.60;99.90;;;;;;5097435;28;20048;-51
2022/01/31 08:57:58;;;;;;;9.75;1.88;;;5.70;99.90;;;;;;5094958;28;20047;-49
2022/01/31 09:00:33;;;;;;;7.70;2.22;;;5.70;99.90;;;;;;5099626;28;20406;-48
2022/01/31 09:03:06;;;;;;;16.27;2.15;;;5.70;99.90;;;;;;5095653;28;20071;-50
2022/01/31 09:05:32;;;;;;;7.38;1.77;;;5.80;99.90;;;;;;5101877;28;20100;-50
2022/01/31 09:07:57;;;;;;;16.60;2.33;;;5.90;99.90;;;;;;5104220;28;20048;-48
2022/01/31 09:10:23;;;;;;;11.57;2.22;;;5.90;99.90;;;;;;5102762;28;20126;-54
2022/01/31 09:12:49;;;;;;;13.00;2.38;;;6.00;99.90;;;;;;5102420;28;20134;-52
2022/01/31 09:15:14;;;;;;;11.27;2.13;;;6.00;99.90;;;;;;5105197;28;20055;-53
2022/01/31 09:17:41;;;;;;;15.25;2.15;;;6.00;99.90;;;;;;5092776;28;20028;-52
2022/01/31 09:20:07;;;;;;;11.35;2.40;;;6.10;99.90;;;;;;5102156;28;20044;-51
2022/01/31 09:22:33;;;;;;;11.20;2.60;;;6.10;99.90;;;;;;5100421;28;20079;-50
2022/01/31 09:24:59;;;;;;;13.88;2.30;;;6.00;99.90;;;;;;5098388;28;20040;-51
2022/01/31 09:27:24;;;;;;;17.23;2.08;;;6.10;99.90;;;;;;5102656;28;20130;-52
2022/01/31 09:29:50;;;;;;;15.25;2.25;;;6.10;99.90;;;;;;5097920;28;20055;-49
2022/01/31 09:32:21;;;;;;;15.88;2.75;;;6.10;99.90;;;;;;5104457;28;20039;-51
2022/01/31 09:34:46;;;;;;;15.00;3.78;;;6.20;99.90;;;;;;5106212;28;20543;-49
2022/01/31 09:37:12;;;;;;;18.48;3.38;;;6.30;99.90;;;;;;5104513;28;20044;-51
2022/01/31 09:39:38;;;;;;;9.38;2.13;;;;;;;;;;5098489;28;20143;-49
2022/01/31 09:42:13;;;;;;;10.75;2.55;;;6.40;99.90;;;;;;5104074;28;20371;-50
2022/01/31 09:45:04;;;;;;;9.85;1.75;;;6.40;99.90;;;;;;5105159;28;20451;-49
2022/01/31 09:50:14;;;;;;;10.18;2.40;;;6.50;99.90;;;;;;5098261;28;20074;-53
2022/01/31 09:52:40;;;;;;;11.38;2.30;;;6.50;99.90;;;;;;5092012;28;20052;-53
2022/01/31 09:55:07;;;;;;;11.52;2.30;;;6.50;99.90;;;;;;5097697;28;20032;-52
2022/01/31 09:57:33;;;;;;;7.93;1.80;;;6.40;99.90;;;;;;5103902;28;20043;-52
2022/01/31 09:59:59;;;;;;;8.02;1.77;;;6.50;99.90;;;;;;5102333;28;20036;-51
2022/01/31 10:02:24;;;;;;;10.40;2.50;;;6.70;99.90;;;;;;5103077;28;20539;-50
2022/01/31 10:04:50;;;;;;;9.07;2.53;;;;;;;;;;5106041;28;20359;-50
2022/01/31 10:07:17;;;;;;;8.75;2.08;;;6.70;99.90;;;;;;5105043;28;20052;-51
2022/01/31 10:09:48;;;;;;;13.85;2.28;;;6.70;99.90;;;;;;5105461;28;20044;-50
2022/01/31 10:12:27;;;;;;;11.15;2.50;;;6.80;99.90;;;;;;5103994;28;20047;-51
2022/01/31 10:17:39;;;;;;;9.32;2.08;;;6.90;99.90;;;;;;5104730;28;20078;-50
2022/01/31 10:20:07;;;;;;;12.00;2.55;;;6.90;99.90;;;;;;5106041;28;20360;-52
2022/01/31 10:22:36;;;;;;;5.93;1.10;;;6.90;99.90;;;;;;5103136;28;20048;-51
2022/01/31 10:25:07;;;;;;;10.30;2.40;;;6.80;99.90;;;;;;5105396;28;20051;-50
2022/01/31 10:27:36;;;;;;;10.15;2.35;;;6.90;99.90;;;;;;5101973;28;20059;-51
2022/01/31 10:30:12;;;;;;;5.93;1.65;;;6.90;99.90;;;;;;5098679;28;20036;-50
2022/01/31 10:32:43;;;;;;;7.13;2.25;;;6.80;99.90;;;;;;5104975;28;20152;-51
2022/01/31 10:35:12;;;;;;;12.65;1.98;;;6.90;99.90;;;;;;5103176;28;20040;-51
2022/01/31 10:37:40;;;;;;;9.43;2.72;;;6.80;99.90;;;;;;5103011;28;20036;-53
2022/01/31 10:57:02;;;;;;;7.00;1.58;;;7.20;99.90;;;;;;5105248;28;20184;-53
2022/01/31 10:59:36;;;;;;;6.32;1.00;;;7.30;99.90;;;;;;5094908;28;20036;-53
2022/01/31 11:02:05;;;;;;;4.50;1.55;;;7.30;99.90;;;;;;5098767;28;20036;-53
2022/01/31 11:04:33;;;;;;;4.18;1.20;;;7.40;99.90;;;;;;5098818;28;20130;-50
2022/01/31 11:07:02;;;;;;;5.43;1.48;;;7.50;99.90;;;;;;5084949;28;20043;-53
2022/01/31 11:09:30;;;;;;;7.57;1.13;;;7.50;99.90;;;;;;5094713;28;20512;-55
2022/01/31 11:11:55;;;;;;;7.40;1.30;;;7.50;99.90;;;;;;5092605;28;20497;-55
2022/01/31 11:14:21;;;;;;;7.32;1.23;;;7.60;99.90;;;;;;5097887;28;20036;-53
2022/01/31 11:16:48;;;;;;;8.63;1.77;;;7.60;99.90;;;;;;5096377;28;20132;-54
2022/01/31 11:19:18;;;;;;;8.52;1.42;;;7.60;99.90;;;;;;5096839;28;20040;-52
2022/01/31 11:21:46;;;;;;;8.90;2.10;;;7.60;99.90;;;;;;5095576;28;20092;-53
2022/01/31 11:24:19;;;;;;;7.93;1.40;;;7.60;99.90;;;;;;5089609;28;20036;-53
2022/01/31 11:27:32;;;;;;;7.10;1.40;;;7.50;99.90;;;;;;5099857;28;20044;-52
2022/01/31 11:29:58;;;;;;;9.82;1.30;;;7.50;99.90;;;;;;5098995;28;20044;-53
2022/01/31 11:32:25;;;;;;;8.80;1.70;;;7.30;99.90;;;;;;5098748;28;20043;-56
2022/01/31 11:34:52;;;;;;;10.20;1.60;;;7.20;99.90;;;;;;5097801;28;20051;-54
2022/01/31 11:37:25;;;;;;;11.10;2.25;;;7.30;99.90;;;;;;5094601;28;20481;-54
2022/01/31 11:40:11;;;;;;;6.85;1.65;;;7.40;99.90;;;;;;5100025;28;20404;-53
2022/01/31 11:42:45;;;;;;;12.18;2.20;;;7.50;99.90;;;;;;5099230;28;20042;-53
2022/01/31 11:45:20;;;;;;;12.02;1.85;;;7.60;99.90;;;;;;5095825;28;20044;-53
2022/01/31 11:47:52;;;;;;;8.25;1.60;;;7.60;99.90;;;;;;5098080;28;20063;-53
2022/01/31 11:50:20;;;;;;;11.23;1.70;;;7.60;99.90;;;;;;5089446;28;20158;-49
2022/01/31 11:52:47;;;;;;;;;;;7.50;99.90;;;;;;5098393;28;20053;-54
2022/01/31 11:55:16;;;;;;;12.35;1.95;;;7.50;99.90;;;;;;5099065;28;20354;-52
2022/01/31 11:57:46;;;;;;;16.40;2.70;;;7.60;99.90;;;;;;5099244;28;20071;-52
2022/01/31 12:00:13;;;;;;;12.48;2.35;;;;;;;;;;5098709;28;20347;-52
2022/01/31 12:02:48;;;;;;;9.17;2.27;;;8.20;99.90;;;;;;5095113;28;20377;-55
2022/01/31 12:05:22;;;;;;;12.32;2.38;;;8.20;99.90;;;;;;5088391;28;20039;-53
2022/01/31 12:07:59;;;;;;;11.55;2.58;;;8.30;99.90;;;;;;5095131;28;20048;-54
2022/01/31 12:10:31;;;;;;;12.25;1.92;;;8.50;99.90;;;;;;5087489;28;20040;-53
2022/01/31 12:13:02;;;;;;;14.35;2.78;;;8.60;99.90;;;;;;5097072;28;20127;-55
2022/01/31 12:18:30;;;;;;;11.73;2.38;;;8.80;99.90;;;;;;5099235;28;20135;-54
2022/01/31 12:23:56;;;;;;;9.35;2.03;;;8.90;99.90;;;;;;5093288;28;20749;-55
2022/01/31 12:26:35;;;;;;;9.88;2.13;;;8.80;99.90;;;;;;5099665;28;20084;-54
2022/01/31 12:29:15;;;;;;;8.93;2.08;;;8.90;99.90;;;;;;5096178;28;20051;-53
2022/01/31 12:32:11;;;;;;;9.95;1.70;;;9.10;99.90;;;;;;5095727;28;20044;-54
2022/01/31 12:34:39;;;;;;;7.50;1.58;;;9.30;99.90;;;;;;5081634;28;20044;-52
2022/01/31 12:37:22;;;;;;;7.70;1.45;;;9.40;99.90;;;;;;5101290;28;20051;-54
2022/01/31 12:39:58;;;;;;;10.82;1.92;;;9.30;99.90;;;;;;5099516;28;20215;-53
2022/01/31 12:42:51;;;;;;;12.60;2.13;;;9.20;99.90;;;;;;5097647;28;20044;-54
2022/01/31 12:45:18;;;;;;;7.82;1.48;;;9.10;99.90;;;;;;5101508;28;20816;-55
2022/01/31 12:48:09;;;;;;;7.40;2.33;;;8.90;99.90;;;;;;5101334;28;20055;-54
2022/01/31 12:50:41;;;;;;;11.40;2.30;;;8.80;99.90;;;;;;5100245;28;20048;-54
2022/01/31 12:53:22;;;;;;;10.32;2.47;;;8.70;99.90;;;;;;5100462;28;20109;-53
2022/01/31 12:56:02;;;;;;;8.65;2.08;;;8.50;99.90;;;;;;5102283;28;20056;-54
2022/01/31 12:58:36;;;;;;;7.63;1.30;;;8.60;99.90;;;;;;5102198;28;20051;-55
2022/01/31 13:01:20;;;;;;;7.20;1.65;;;8.50;99.90;;;;;;5102192;28;20032;-57
2022/01/31 13:03:58;;;;;;;7.07;1.90;;;8.50;99.90;;;;;;5098471;28;20097;-55
2022/01/31 13:06:39;;;;;;;10.65;2.20;;;8.50;99.90;;;;;;5094826;28;20056;-56
2022/01/31 13:09:31;;;;;;;12.02;2.00;;;8.50;99.90;;;;;;5097470;28;20416;-55
2022/01/31 13:12:04;;;;;;;7.80;1.65;;;8.40;99.90;;;;;;5091214;28;20037;-55
2022/01/31 13:14:33;;;;;;;12.18;2.53;;;8.30;99.90;;;;;;5100182;28;20073;-55
2022/01/31 13:19:34;;;;;;;7.72;2.25;;;8.40;99.90;;;;;;5100406;28;20044;-52
2022/01/31 13:22:03;;;;;;;12.52;2.65;;;8.40;99.90;;;;;;5104711;28;20036;-54
2022/01/31 13:24:47;;;;;;;8.27;2.28;;;8.40;99.90;;;;;;5105655;28;20043;-53
2022/01/31 13:27:21;;;;;;;9.13;2.30;;;8.40;99.90;;;;;;5111933;28;20044;-54
2022/01/31 13:29:50;;;;;;;7.88;1.75;;;8.40;99.90;;;;;;5113493;28;20251;-51
2022/01/31 13:32:22;;;;;;;10.15;2.70;;;8.40;99.90;;;;;;5113267;28;20083;-55